Monte — V2FS2 — position and weather

sailwx.info

Track history (hours):
 
Tides and Currents Weather Stations Pressure Air Temp Water Temp Dewpoint Dewpoint Depression Visibility Wind Speed Wind Dir Waves Ship Positions

Monte

Last reported at 2015-Feb-28 01:31 UTC. Time now 2015-Feb-28 02:04 UTC.
Position N 51°06' E 003°44'.

Length 104 m; draft 3.6 m.

Type: Cargo ship. MMSI: 305777000.

Date/timePositionNaut miles runAvg speedWind from/ knotsBaromVisibWave heightAir tempDewpointWater temp
2015-Feb-28 01:31N 51°06' E 003°44'0 0.0
2015-Feb-28 00:29N 51°06' E 003°44'0 0.0
2015-Feb-27 23:32N 51°06' E 003°44'0 0.0
2015-Feb-27 22:29N 51°06' E 003°44'1 0.8
2015-Feb-27 21:32N 51°05' E 003°44'0 0.0
2015-Feb-27 20:29N 51°05' E 003°44'0 0.0
2015-Feb-27 19:29N 51°05' E 003°44'0 0.0
2015-Feb-27 18:29N 51°05' E 003°44'0 0.0
2015-Feb-27 17:32N 51°05' E 003°44'0 0.0
2015-Feb-27 16:28N 51°05' E 003°44'0 0.0
2015-Feb-27 15:28N 51°05' E 003°44'0 0.0
2015-Feb-27 14:28N 51°05' E 003°44'0 0.0
2015-Feb-27 13:28N 51°05' E 003°44'0 0.0
2015-Feb-27 12:19N 51°05' E 003°44'0 0.0
2015-Feb-27 11:28N 51°05' E 003°44'0 0.0
2015-Feb-27 10:31N 51°05' E 003°44'0 0.0
2015-Feb-27 09:28N 51°05' E 003°44'0 0.0
2015-Feb-27 08:31N 51°05' E 003°44'0 0.0
2015-Feb-27 07:28N 51°05' E 003°44'0 0.0
2015-Feb-27 06:31N 51°05' E 003°44'0 0.0
2015-Feb-27 05:31N 51°05' E 003°44'0 0.0
2015-Feb-27 04:28N 51°05' E 003°44'0 0.0
2015-Feb-27 03:28N 51°05' E 003°44'0 0.2
2015-Feb-27 02:33N 51°05' E 003°44'6 6.4
2015-Feb-27 01:33N 51°11' E 003°48'7 7.1
2015-Feb-27 00:34N 51°18' E 003°50'2 2.5
2015-Feb-26 23:33N 51°21' E 003°49'7 6.9
2015-Feb-26 22:33N 51°26' E 003°41'7 6.9
2015-Feb-26 21:33N 51°28' E 003°31'9 8.7
2015-Feb-26 20:33N 51°36' E 003°23'10 8.7
2015-Feb-26 19:25N 51°44' E 003°15'121 8.5
2015-Feb-26 05:15N 53°31' E 004°48'1110.7
2015-Feb-26 04:11N 53°34' E 005°06'710.5
2015-Feb-26 03:33N 53°36' E 005°16'10 9.5
2015-Feb-26 02:33N 53°39' E 005°32'9 8.7
2015-Feb-26 01:33N 53°42' E 005°45'9 8.5
2015-Feb-26 00:33N 53°45' E 005°59'42 9.7
2015-Feb-25 20:10N 53°57' E 007°08'6 9.1
2015-Feb-25 19:33N 53°58' E 007°17'1110.6
2015-Feb-25 18:33N 54°01' E 007°35'1010.2
2015-Feb-25 17:33N 54°01' E 007°52'10 9.8
2015-Feb-25 16:33N 54°01' E 008°09'9 8.8
2015-Feb-25 15:33N 53°59' E 008°23'8 8.3
2015-Feb-25 14:33N 53°58' E 008°37'8 7.7
2015-Feb-25 13:33N 53°51' E 008°45'10 9.9
2015-Feb-25 12:33N 53°52' E 009°02'4 4.2
2015-Feb-25 11:33N 53°54' E 009°09'4 4.0
2015-Feb-25 10:33N 53°56' E 009°13'8 8.2
2015-Feb-25 09:33N 54°04' E 009°19'9 7.7
2015-Feb-25 08:24N 54°11' E 009°29'3 3.2
2015-Feb-25 07:28N 54°12' E 009°33'6 5.9
2015-Feb-25 06:24N 54°17' E 009°39'4 4.6
2015-Feb-25 05:33N 54°20' E 009°44'6 6.4
2015-Feb-25 04:33N 54°21' E 009°55'6 5.7
2015-Feb-25 03:33N 54°22' E 010°04'3 3.0
2015-Feb-25 02:33N 54°22' E 010°09'8 8.4
2015-Feb-25 01:33N 54°29' E 010°16'11 9.6
2015-Feb-25 00:25N 54°34' E 010°33'10 9.2
2015-Feb-24 23:21N 54°35' E 010°50'810.0
2015-Feb-24 22:33N 54°36' E 011°04'1010.2
2015-Feb-24 21:33N 54°33' E 011°21'10 9.9
2015-Feb-24 20:33N 54°29' E 011°36'9 9.3
2015-Feb-24 19:33N 54°27' E 011°52'9 9.2
2015-Feb-24 18:33N 54°27' E 012°07'54 9.0
2015-Feb-24 12:32N 54°54' E 013°29'10 9.8
2015-Feb-24 11:33N 54°55' E 013°46'10 9.8
2015-Feb-24 10:33N 54°55' E 014°03'9 9.4
2015-Feb-24 09:33N 54°55' E 014°19'9 9.3
2015-Feb-24 08:33N 54°56' E 014°35'9 9.4
2015-Feb-24 07:33N 54°56' E 014°51'9 9.2
2015-Feb-24 06:33N 54°56' E 015°08'9 9.0
2015-Feb-24 05:33N 54°57' E 015°23'10 9.5
2015-Feb-24 04:32N 54°59' E 015°40'  
2015-Feb-21 14:12N 54°56' E 015°15'711.2
2015-Feb-21 13:33N 54°56' E 015°03'1110.8
2015-Feb-21 12:34N 54°56' E 014°44'1110.5
2015-Feb-21 11:34N 54°56' E 014°26'1410.4
2015-Feb-21 10:10N 54°56' E 014°01'610.3
2015-Feb-21 09:33N 54°56' E 013°50'1010.3
2015-Feb-21 08:33N 54°54' E 013°32'1210.4
2015-Feb-21 07:22N 54°50' E 013°12'810.2
2015-Feb-21 06:34N 54°48' E 012°58'1010.2
2015-Feb-21 05:34N 54°44' E 012°42'1110.6
2015-Feb-21 04:33N 54°38' E 012°26'1010.4
2015-Feb-21 03:33N 54°29' E 012°16'9 9.3
2015-Feb-21 02:34N 54°24' E 012°02'1010.3
2015-Feb-21 01:33N 54°25' E 011°45'1010.3
2015-Feb-21 00:33N 54°30' E 011°29'1110.6
2015-Feb-20 23:33N 54°34' E 011°12'1110.6
2015-Feb-20 22:29N 54°34' E 010°53'910.2
2015-Feb-20 21:33N 54°33' E 010°36'1010.4
2015-Feb-20 20:34N 54°29' E 010°20'10 9.8
2015-Feb-20 19:33N 54°22' E 010°09'1 0.9
2015-Feb-20 18:34N 54°22' E 010°08'7 6.8
2015-Feb-20 17:33N 54°20' E 009°56'8 7.7
2015-Feb-20 16:33N 54°19' E 009°43'6 5.8
2015-Feb-20 15:31N 54°15' E 009°37'4 4.2
2015-Feb-20 14:33N 54°12' E 009°32'7 7.0
2015-Feb-20 13:33N 54°09' E 009°21'8 8.3
2015-Feb-20 12:34N 54°01' E 009°18'7 6.9
2015-Feb-20 11:34N 53°55' E 009°11'2 2.0
2015-Feb-20 10:33N 53°54' E 009°09'2 2.1
2015-Feb-20 09:34N 53°53' E 009°05'7 7.1
2015-Feb-20 08:33N 53°50' E 008°54'7 6.6
2015-Feb-20 07:34N 53°52' E 008°43'6 6.1
2015-Feb-20 06:34N 53°57' E 008°37'7 7.2
2015-Feb-20 05:33N 53°59' E 008°25'9 8.8
2015-Feb-20 04:33N 53°59' E 008°10'12 8.1
2015-Feb-20 03:07N 53°57' E 007°51'6 7.6
2015-Feb-20 02:20N 53°56' E 007°41'10 8.0
2015-Feb-20 01:08N 53°54' E 007°25'38 9.4
2015-Feb-19 21:04N 53°45' E 006°22'510.1
2015-Feb-19 20:32N 53°43' E 006°14'1010.6
2015-Feb-19 19:33N 53°40' E 005°57'1211.5
2015-Feb-19 18:33N 53°36' E 005°39'1212.1
2015-Feb-19 17:33N 53°32' E 005°20'1211.9
2015-Feb-19 16:34N 53°28' E 005°01'1211.6
2015-Feb-19 15:34N 53°24' E 004°43'5510.3
2015-Feb-19 10:14N 52°37' E 003°54'18 8.9
2015-Feb-19 08:09N 52°22' E 003°38'6 8.9
2015-Feb-19 07:29N 52°16' E 003°34'11 9.7
2015-Feb-19 06:23N 52°06' E 003°27'910.8
2015-Feb-19 05:33N 51°58' E 003°22'1111.4
2015-Feb-19 04:33N 51°48' E 003°15'10 9.6
2015-Feb-19 03:33N 51°39' E 003°21'1212.0
2015-Feb-19 02:34N 51°29' E 003°30'8 8.1
2015-Feb-19 01:33N 51°25' E 003°42'7 6.7
2015-Feb-19 00:33N 51°20' E 003°49'4 4.3
2015-Feb-18 23:33N 51°16' E 003°50'2 1.9
2015-Feb-18 22:33N 51°14' E 003°48'0 0.0
2015-Feb-18 21:32N 51°14' E 003°48'0 0.0
2015-Feb-18 20:32N 51°14' E 003°48'0 0.0
2015-Feb-18 19:32N 51°14' E 003°48'0 0.0
2015-Feb-18 18:32N 51°14' E 003°48'0 0.0
2015-Feb-18 17:29N 51°14' E 003°48'0 0.0
2015-Feb-18 16:32N 51°14' E 003°48'0 0.0
2015-Feb-18 15:32N 51°14' E 003°48'0 0.0
2015-Feb-18 14:32N 51°14' E 003°48'0 0.0
2015-Feb-18 13:32N 51°14' E 003°48'0 0.0
2015-Feb-18 12:32N 51°14' E 003°48'0 0.0
2015-Feb-18 11:32N 51°14' E 003°48'0 0.0
2015-Feb-18 10:32N 51°14' E 003°48'0 0.0
2015-Feb-18 09:32N 51°14' E 003°48'0 0.0
2015-Feb-18 08:29N 51°14' E 003°48'0 0.0
2015-Feb-18 07:32N 51°14' E 003°48'0 0.0
2015-Feb-18 06:32N 51°14' E 003°48'0 0.0
2015-Feb-18 05:32N 51°14' E 003°48'0 0.0
2015-Feb-18 04:29N 51°14' E 003°48'0 0.0
2015-Feb-18 03:32N 51°14' E 003°48'0 0.0
2015-Feb-18 02:32N 51°14' E 003°48'0 0.0
2015-Feb-18 01:32N 51°14' E 003°48'  
Track history (hours):
 
Tides and Currents Weather Stations Pressure Air Temp Water Temp Dewpoint Dewpoint Depression Visibility Wind Speed Wind Dir Waves Ship Positions

Monte

Last reported at 2015-Feb-28 01:31 UTC. Time now 2015-Feb-28 02:04 UTC.
Position N 51°06' E 003°44'.

Length 104 m; draft 3.6 m.

Type: Cargo ship. MMSI: 305777000.

Date/timePositionNaut miles runAvg speedWind from/ knotsBaromVisibWave heightAir tempDewpointWater temp
2015-Feb-28 01:31N 51°06' E 003°44'0 0.0
2015-Feb-28 00:29N 51°06' E 003°44'0 0.0
2015-Feb-27 23:32N 51°06' E 003°44'0 0.0
2015-Feb-27 22:29N 51°06' E 003°44'1 0.8
2015-Feb-27 21:32N 51°05' E 003°44'0 0.0
2015-Feb-27 20:29N 51°05' E 003°44'0 0.0
2015-Feb-27 19:29N 51°05' E 003°44'0 0.0
2015-Feb-27 18:29N 51°05' E 003°44'0 0.0
2015-Feb-27 17:32N 51°05' E 003°44'0 0.0
2015-Feb-27 16:28N 51°05' E 003°44'0 0.0
2015-Feb-27 15:28N 51°05' E 003°44'0 0.0
2015-Feb-27 14:28N 51°05' E 003°44'0 0.0
2015-Feb-27 13:28N 51°05' E 003°44'0 0.0
2015-Feb-27 12:19N 51°05' E 003°44'0 0.0
2015-Feb-27 11:28N 51°05' E 003°44'0 0.0
2015-Feb-27 10:31N 51°05' E 003°44'0 0.0
2015-Feb-27 09:28N 51°05' E 003°44'0 0.0
2015-Feb-27 08:31N 51°05' E 003°44'0 0.0
2015-Feb-27 07:28N 51°05' E 003°44'0 0.0
2015-Feb-27 06:31N 51°05' E 003°44'0 0.0
2015-Feb-27 05:31N 51°05' E 003°44'0 0.0
2015-Feb-27 04:28N 51°05' E 003°44'0 0.0
2015-Feb-27 03:28N 51°05' E 003°44'0 0.2
2015-Feb-27 02:33N 51°05' E 003°44'6 6.4
2015-Feb-27 01:33N 51°11' E 003°48'7 7.1
2015-Feb-27 00:34N 51°18' E 003°50'2 2.5
2015-Feb-26 23:33N 51°21' E 003°49'7 6.9
2015-Feb-26 22:33N 51°26' E 003°41'7 6.9
2015-Feb-26 21:33N 51°28' E 003°31'9 8.7
2015-Feb-26 20:33N 51°36' E 003°23'10 8.7
2015-Feb-26 19:25N 51°44' E 003°15'121 8.5
2015-Feb-26 05:15N 53°31' E 004°48'1110.7
2015-Feb-26 04:11N 53°34' E 005°06'710.5
2015-Feb-26 03:33N 53°36' E 005°16'10 9.5
2015-Feb-26 02:33N 53°39' E 005°32'9 8.7
2015-Feb-26 01:33N 53°42' E 005°45'9 8.5
2015-Feb-26 00:33N 53°45' E 005°59'42 9.7
2015-Feb-25 20:10N 53°57' E 007°08'6 9.1
2015-Feb-25 19:33N 53°58' E 007°17'1110.6
2015-Feb-25 18:33N 54°01' E 007°35'1010.2
2015-Feb-25 17:33N 54°01' E 007°52'10 9.8
2015-Feb-25 16:33N 54°01' E 008°09'9 8.8
2015-Feb-25 15:33N 53°59' E 008°23'8 8.3
2015-Feb-25 14:33N 53°58' E 008°37'8 7.7
2015-Feb-25 13:33N 53°51' E 008°45'10 9.9
2015-Feb-25 12:33N 53°52' E 009°02'4 4.2
2015-Feb-25 11:33N 53°54' E 009°09'4 4.0
2015-Feb-25 10:33N 53°56' E 009°13'8 8.2
2015-Feb-25 09:33N 54°04' E 009°19'9 7.7
2015-Feb-25 08:24N 54°11' E 009°29'3 3.2
2015-Feb-25 07:28N 54°12' E 009°33'6 5.9
2015-Feb-25 06:24N 54°17' E 009°39'4 4.6
2015-Feb-25 05:33N 54°20' E 009°44'6 6.4
2015-Feb-25 04:33N 54°21' E 009°55'6 5.7
2015-Feb-25 03:33N 54°22' E 010°04'3 3.0
2015-Feb-25 02:33N 54°22' E 010°09'8 8.4
2015-Feb-25 01:33N 54°29' E 010°16'11 9.6
2015-Feb-25 00:25N 54°34' E 010°33'10 9.2
2015-Feb-24 23:21N 54°35' E 010°50'810.0
2015-Feb-24 22:33N 54°36' E 011°04'1010.2
2015-Feb-24 21:33N 54°33' E 011°21'10 9.9
2015-Feb-24 20:33N 54°29' E 011°36'9 9.3
2015-Feb-24 19:33N 54°27' E 011°52'9 9.2
2015-Feb-24 18:33N 54°27' E 012°07'54 9.0
2015-Feb-24 12:32N 54°54' E 013°29'10 9.8
2015-Feb-24 11:33N 54°55' E 013°46'10 9.8
2015-Feb-24 10:33N 54°55' E 014°03'9 9.4
2015-Feb-24 09:33N 54°55' E 014°19'9 9.3
2015-Feb-24 08:33N 54°56' E 014°35'9 9.4
2015-Feb-24 07:33N 54°56' E 014°51'9 9.2
2015-Feb-24 06:33N 54°56' E 015°08'9 9.0
2015-Feb-24 05:33N 54°57' E 015°23'10 9.5
2015-Feb-24 04:32N 54°59' E 015°40'  
2015-Feb-21 14:12N 54°56' E 015°15'711.2
2015-Feb-21 13:33N 54°56' E 015°03'1110.8
2015-Feb-21 12:34N 54°56' E 014°44'1110.5
2015-Feb-21 11:34N 54°56' E 014°26'1410.4
2015-Feb-21 10:10N 54°56' E 014°01'610.3
2015-Feb-21 09:33N 54°56' E 013°50'1010.3
2015-Feb-21 08:33N 54°54' E 013°32'1210.4
2015-Feb-21 07:22N 54°50' E 013°12'810.2
2015-Feb-21 06:34N 54°48' E 012°58'1010.2
2015-Feb-21 05:34N 54°44' E 012°42'1110.6
2015-Feb-21 04:33N 54°38' E 012°26'1010.4
2015-Feb-21 03:33N 54°29' E 012°16'9 9.3
2015-Feb-21 02:34N 54°24' E 012°02'1010.3
2015-Feb-21 01:33N 54°25' E 011°45'1010.3
2015-Feb-21 00:33N 54°30' E 011°29'1110.6
2015-Feb-20 23:33N 54°34' E 011°12'1110.6
2015-Feb-20 22:29N 54°34' E 010°53'910.2
2015-Feb-20 21:33N 54°33' E 010°36'1010.4
2015-Feb-20 20:34N 54°29' E 010°20'10 9.8
2015-Feb-20 19:33N 54°22' E 010°09'1 0.9
2015-Feb-20 18:34N 54°22' E 010°08'7 6.8
2015-Feb-20 17:33N 54°20' E 009°56'8 7.7
2015-Feb-20 16:33N 54°19' E 009°43'6 5.8
2015-Feb-20 15:31N 54°15' E 009°37'4 4.2
2015-Feb-20 14:33N 54°12' E 009°32'7 7.0
2015-Feb-20 13:33N 54°09' E 009°21'8 8.3
2015-Feb-20 12:34N 54°01' E 009°18'7 6.9
2015-Feb-20 11:34N 53°55' E 009°11'2 2.0
2015-Feb-20 10:33N 53°54' E 009°09'2 2.1
2015-Feb-20 09:34N 53°53' E 009°05'7 7.1
2015-Feb-20 08:33N 53°50' E 008°54'7 6.6
2015-Feb-20 07:34N 53°52' E 008°43'6 6.1
2015-Feb-20 06:34N 53°57' E 008°37'7 7.2
2015-Feb-20 05:33N 53°59' E 008°25'9 8.8
2015-Feb-20 04:33N 53°59' E 008°10'12 8.1
2015-Feb-20 03:07N 53°57' E 007°51'6 7.6
2015-Feb-20 02:20N 53°56' E 007°41'10 8.0
2015-Feb-20 01:08N 53°54' E 007°25'38 9.4
2015-Feb-19 21:04N 53°45' E 006°22'510.1
2015-Feb-19 20:32N 53°43' E 006°14'1010.6
2015-Feb-19 19:33N 53°40' E 005°57'1211.5
2015-Feb-19 18:33N 53°36' E 005°39'1212.1
2015-Feb-19 17:33N 53°32' E 005°20'1211.9
2015-Feb-19 16:34N 53°28' E 005°01'1211.6
2015-Feb-19 15:34N 53°24' E 004°43'5510.3
2015-Feb-19 10:14N 52°37' E 003°54'18 8.9
2015-Feb-19 08:09N 52°22' E 003°38'6 8.9
2015-Feb-19 07:29N 52°16' E 003°34'11 9.7
2015-Feb-19 06:23N 52°06' E 003°27'910.8
2015-Feb-19 05:33N 51°58' E 003°22'1111.4
2015-Feb-19 04:33N 51°48' E 003°15'10 9.6
2015-Feb-19 03:33N 51°39' E 003°21'1212.0
2015-Feb-19 02:34N 51°29' E 003°30'8 8.1
2015-Feb-19 01:33N 51°25' E 003°42'7 6.7
2015-Feb-19 00:33N 51°20' E 003°49'4 4.3
2015-Feb-18 23:33N 51°16' E 003°50'2 1.9
2015-Feb-18 22:33N 51°14' E 003°48'0 0.0
2015-Feb-18 21:32N 51°14' E 003°48'0 0.0
2015-Feb-18 20:32N 51°14' E 003°48'0 0.0
2015-Feb-18 19:32N 51°14' E 003°48'0 0.0
2015-Feb-18 18:32N 51°14' E 003°48'0 0.0
2015-Feb-18 17:29N 51°14' E 003°48'0 0.0
2015-Feb-18 16:32N 51°14' E 003°48'0 0.0
2015-Feb-18 15:32N 51°14' E 003°48'0 0.0
2015-Feb-18 14:32N 51°14' E 003°48'0 0.0
2015-Feb-18 13:32N 51°14' E 003°48'0 0.0
2015-Feb-18 12:32N 51°14' E 003°48'0 0.0
2015-Feb-18 11:32N 51°14' E 003°48'0 0.0
2015-Feb-18 10:32N 51°14' E 003°48'0 0.0
2015-Feb-18 09:32N 51°14' E 003°48'0 0.0
2015-Feb-18 08:29N 51°14' E 003°48'0 0.0
2015-Feb-18 07:32N 51°14' E 003°48'0 0.0
2015-Feb-18 06:32N 51°14' E 003°48'0 0.0
2015-Feb-18 05:32N 51°14' E 003°48'0 0.0
2015-Feb-18 04:29N 51°14' E 003°48'0 0.0
2015-Feb-18 03:32N 51°14' E 003°48'0 0.0
2015-Feb-18 02:32N 51°14' E 003°48'0 0.0
2015-Feb-18 01:32N 51°14' E 003°48'  

Dump ship's entire track history